sensor_id;sensor_type;location;lat;lon;timestamp;P1;durP1;ratioP1;P2;durP2;ratioP2
13943;SDS011;7044;53.286;8.534;2023-04-24T00:01:49;1.75;;;1.60;;
13943;SDS011;7044;53.286;8.534;2023-04-24T00:04:16;1.98;;;1.77;;
13943;SDS011;7044;53.286;8.534;2023-04-24T00:06:44;1.88;;;1.70;;
13943;SDS011;7044;53.286;8.534;2023-04-24T00:09:14;2.08;;;1.88;;
13943;SDS011;7044;53.286;8.534;2023-04-24T00:11:41;1.95;;;1.70;;
13943;SDS011;7044;53.286;8.534;2023-04-24T00:14:08;3.92;;;1.60;;
13943;SDS011;7044;53.286;8.534;2023-04-24T00:16:35;2.22;;;1.70;;
13943;SDS011;7044;53.286;8.534;2023-04-24T00:19:02;2.45;;;1.90;;
13943;SDS011;7044;53.286;8.534;2023-04-24T00:21:30;1.95;;;1.70;;
13943;SDS011;7044;53.286;8.534;2023-04-24T00:23:59;1.90;;;1.67;;
13943;SDS011;7044;53.286;8.534;2023-04-24T00:26:25;1.80;;;1.70;;
13943;SDS011;7044;53.286;8.534;2023-04-24T00:28:52;1.70;;;1.50;;
13943;SDS011;7044;53.286;8.534;2023-04-24T00:31:19;1.88;;;1.77;;
13943;SDS011;7044;53.286;8.534;2023-04-24T00:33:46;2.80;;;1.90;;
13943;SDS011;7044;53.286;8.534;2023-04-24T00:36:12;2.10;;;1.63;;
13943;SDS011;7044;53.286;8.534;2023-04-24T00:38:39;2.08;;;1.80;;
13943;SDS011;7044;53.286;8.534;2023-04-24T00:41:07;1.80;;;1.40;;
13943;SDS011;7044;53.286;8.534;2023-04-24T00:43:34;8.73;;;1.90;;
13943;SDS011;7044;53.286;8.534;2023-04-24T00:46:01;5.30;;;2.00;;
13943;SDS011;7044;53.286;8.534;2023-04-24T00:48:28;1.80;;;1.70;;
13943;SDS011;7044;53.286;8.534;2023-04-24T00:50:55;2.30;;;2.00;;
13943;SDS011;7044;53.286;8.534;2023-04-24T00:53:22;1.67;;;1.58;;
13943;SDS011;7044;53.286;8.534;2023-04-24T00:55:49;1.60;;;1.50;;
13943;SDS011;7044;53.286;8.534;2023-04-24T00:58:17;1.63;;;1.52;;
13943;SDS011;7044;53.286;8.534;2023-04-24T01:00:45;1.83;;;1.73;;
13943;SDS011;7044;53.286;8.534;2023-04-24T01:03:12;1.80;;;1.60;;
13943;SDS011;7044;53.286;8.534;2023-04-24T01:05:39;1.50;;;1.40;;
13943;SDS011;7044;53.286;8.534;2023-04-24T01:08:06;1.52;;;1.40;;
13943;SDS011;7044;53.286;8.534;2023-04-24T01:10:33;1.20;;;1.10;;
13943;SDS011;7044;53.286;8.534;2023-04-24T01:13:02;1.00;;;1.00;;
13943;SDS011;7044;53.286;8.534;2023-04-24T01:15:30;0.95;;;0.95;;
13943;SDS011;7044;53.286;8.534;2023-04-24T01:17:57;2.92;;;0.93;;
13943;SDS011;7044;53.286;8.534;2023-04-24T01:20:24;0.90;;;0.90;;
13943;SDS011;7044;53.286;8.534;2023-04-24T01:22:53;1.35;;;1.25;;
13943;SDS011;7044;53.286;8.534;2023-04-24T01:25:21;1.10;;;1.00;;
13943;SDS011;7044;53.286;8.534;2023-04-24T01:27:48;1.75;;;1.13;;
13943;SDS011;7044;53.286;8.534;2023-04-24T01:30:16;1.10;;;1.10;;
13943;SDS011;7044;53.286;8.534;2023-04-24T01:32:43;1.02;;;1.02;;
13943;SDS011;7044;53.286;8.534;2023-04-24T01:35:11;1.30;;;1.20;;
13943;SDS011;7044;53.286;8.534;2023-04-24T01:37:38;2.10;;;1.27;;
13943;SDS011;7044;53.286;8.534;2023-04-24T01:40:07;1.25;;;1.15;;
13943;SDS011;7044;53.286;8.534;2023-04-24T01:42:34;3.20;;;1.55;;
13943;SDS011;7044;53.286;8.534;2023-04-24T01:45:01;1.60;;;1.50;;
13943;SDS011;7044;53.286;8.534;2023-04-24T01:47:31;4.80;;;1.42;;
13943;SDS011;7044;53.286;8.534;2023-04-24T01:49:58;2.10;;;1.92;;
13943;SDS011;7044;53.286;8.534;2023-04-24T01:52:25;1.85;;;1.75;;
13943;SDS011;7044;53.286;8.534;2023-04-24T01:54:53;1.90;;;1.80;;
13943;SDS011;7044;53.286;8.534;2023-04-24T01:57:22;2.25;;;1.60;;
13943;SDS011;7044;53.286;8.534;2023-04-24T01:59:49;3.38;;;2.00;;
13943;SDS011;7044;53.286;8.534;2023-04-24T02:02:17;3.58;;;2.15;;
13943;SDS011;7044;53.286;8.534;2023-04-24T02:04:46;2.08;;;1.95;;
13943;SDS011;7044;53.286;8.534;2023-04-24T02:07:12;2.30;;;2.10;;
13943;SDS011;7044;53.286;8.534;2023-04-24T02:09:39;2.30;;;2.10;;
13943;SDS011;7044;53.286;8.534;2023-04-24T02:12:06;2.67;;;2.20;;
13943;SDS011;7044;53.286;8.534;2023-04-24T02:14:34;2.42;;;1.95;;
13943;SDS011;7044;53.286;8.534;2023-04-24T02:17:01;2.35;;;2.17;;
13943;SDS011;7044;53.286;8.534;2023-04-24T02:19:28;2.58;;;2.38;;
13943;SDS011;7044;53.286;8.534;2023-04-24T02:21:55;2.50;;;2.20;;
13943;SDS011;7044;53.286;8.534;2023-04-24T02:24:24;3.80;;;2.40;;
13943;SDS011;7044;53.286;8.534;2023-04-24T02:26:51;2.17;;;1.85;;
13943;SDS011;7044;53.286;8.534;2023-04-24T02:29:18;2.35;;;2.15;;
13943;SDS011;7044;53.286;8.534;2023-04-24T02:31:46;2.70;;;2.50;;
13943;SDS011;7044;53.286;8.534;2023-04-24T02:34:13;2.50;;;2.30;;
13943;SDS011;7044;53.286;8.534;2023-04-24T02:36:40;2.72;;;2.28;;
13943;SDS011;7044;53.286;8.534;2023-04-24T02:39:06;2.22;;;2.08;;
13943;SDS011;7044;53.286;8.534;2023-04-24T02:41:33;2.88;;;2.30;;
13943;SDS011;7044;53.286;8.534;2023-04-24T02:44:00;1.98;;;1.88;;
13943;SDS011;7044;53.286;8.534;2023-04-24T02:46:27;2.63;;;2.08;;
13943;SDS011;7044;53.286;8.534;2023-04-24T02:48:55;2.03;;;1.92;;
13943;SDS011;7044;53.286;8.534;2023-04-24T02:51:21;3.67;;;2.03;;
13943;SDS011;7044;53.286;8.534;2023-04-24T02:53:48;2.83;;;2.53;;
13943;SDS011;7044;53.286;8.534;2023-04-24T02:56:15;2.92;;;2.60;;
13943;SDS011;7044;53.286;8.534;2023-04-24T02:58:42;3.03;;;2.55;;
13943;SDS011;7044;53.286;8.534;2023-04-24T03:01:08;2.65;;;2.45;;
13943;SDS011;7044;53.286;8.534;2023-04-24T03:03:35;2.58;;;2.38;;
13943;SDS011;7044;53.286;8.534;2023-04-24T03:06:04;2.72;;;2.30;;
13943;SDS011;7044;53.286;8.534;2023-04-24T03:08:31;2.65;;;2.40;;
13943;SDS011;7044;53.286;8.534;2023-04-24T03:10:58;2.53;;;2.30;;
13943;SDS011;7044;53.286;8.534;2023-04-24T03:13:24;2.88;;;2.53;;
13943;SDS011;7044;53.286;8.534;2023-04-24T03:15:51;3.97;;;2.15;;
13943;SDS011;7044;53.286;8.534;2023-04-24T03:18:19;3.33;;;2.30;;
13943;SDS011;7044;53.286;8.534;2023-04-24T03:20:46;2.63;;;2.42;;
13943;SDS011;7044;53.286;8.534;2023-04-24T03:23:14;3.40;;;2.70;;
13943;SDS011;7044;53.286;8.534;2023-04-24T03:25:41;2.92;;;2.72;;
13943;SDS011;7044;53.286;8.534;2023-04-24T03:28:08;2.63;;;2.42;;
13943;SDS011;7044;53.286;8.534;2023-04-24T03:30:35;3.13;;;2.85;;
13943;SDS011;7044;53.286;8.534;2023-04-24T03:33:02;3.78;;;3.33;;
13943;SDS011;7044;53.286;8.534;2023-04-24T03:35:29;3.80;;;3.35;;
13943;SDS011;7044;53.286;8.534;2023-04-24T03:37:56;3.97;;;3.65;;
13943;SDS011;7044;53.286;8.534;2023-04-24T03:40:24;3.88;;;3.55;;
13943;SDS011;7044;53.286;8.534;2023-04-24T03:42:50;4.28;;;3.88;;
13943;SDS011;7044;53.286;8.534;2023-04-24T03:45:17;3.80;;;3.50;;
13943;SDS011;7044;53.286;8.534;2023-04-24T03:47:44;4.60;;;4.20;;
13943;SDS011;7044;53.286;8.534;2023-04-24T03:50:11;3.90;;;3.60;;
13943;SDS011;7044;53.286;8.534;2023-04-24T03:52:38;4.35;;;3.97;;
13943;SDS011;7044;53.286;8.534;2023-04-24T03:55:05;4.30;;;3.90;;
13943;SDS011;7044;53.286;8.534;2023-04-24T03:57:34;3.78;;;3.47;;
13943;SDS011;7044;53.286;8.534;2023-04-24T04:00:00;5.03;;;3.50;;
13943;SDS011;7044;53.286;8.534;2023-04-24T04:02:29;4.10;;;3.28;;
13943;SDS011;7044;53.286;8.534;2023-04-24T04:04:56;3.63;;;3.33;;
13943;SDS011;7044;53.286;8.534;2023-04-24T04:07:22;4.47;;;3.53;;
13943;SDS011;7044;53.286;8.534;2023-04-24T04:09:50;4.10;;;3.70;;
13943;SDS011;7044;53.286;8.534;2023-04-24T04:12:17;3.78;;;3.38;;
13943;SDS011;7044;53.286;8.534;2023-04-24T04:14:45;4.30;;;3.58;;
13943;SDS011;7044;53.286;8.534;2023-04-24T04:17:11;6.72;;;3.40;;
13943;SDS011;7044;53.286;8.534;2023-04-24T04:19:38;6.15;;;3.17;;
13943;SDS011;7044;53.286;8.534;2023-04-24T04:22:05;3.47;;;3.17;;
13943;SDS011;7044;53.286;8.534;2023-04-24T04:24:33;3.60;;;3.30;;
13943;SDS011;7044;53.286;8.534;2023-04-24T04:27:02;4.72;;;3.40;;
13943;SDS011;7044;53.286;8.534;2023-04-24T04:29:29;3.80;;;3.50;;
13943;SDS011;7044;53.286;8.534;2023-04-24T04:31:59;5.35;;;3.75;;
13943;SDS011;7044;53.286;8.534;2023-04-24T04:34:26;5.35;;;3.50;;
13943;SDS011;7044;53.286;8.534;2023-04-24T04:36:53;3.90;;;3.50;;
13943;SDS011;7044;53.286;8.534;2023-04-24T04:39:20;5.25;;;3.55;;
13943;SDS011;7044;53.286;8.534;2023-04-24T04:41:47;4.32;;;3.92;;
13943;SDS011;7044;53.286;8.534;2023-04-24T04:44:15;4.88;;;3.60;;
13943;SDS011;7044;53.286;8.534;2023-04-24T04:46:42;4.47;;;3.90;;
13943;SDS011;7044;53.286;8.534;2023-04-24T04:49:10;4.28;;;3.85;;
13943;SDS011;7044;53.286;8.534;2023-04-24T04:51:38;7.28;;;3.65;;
13943;SDS011;7044;53.286;8.534;2023-04-24T04:54:04;5.63;;;3.80;;
13943;SDS011;7044;53.286;8.534;2023-04-24T04:56:31;5.38;;;3.97;;
13943;SDS011;7044;53.286;8.534;2023-04-24T04:58:58;4.22;;;3.70;;
13943;SDS011;7044;53.286;8.534;2023-04-24T05:01:25;4.38;;;3.78;;
13943;SDS011;7044;53.286;8.534;2023-04-24T05:03:52;5.55;;;4.00;;
13943;SDS011;7044;53.286;8.534;2023-04-24T05:06:20;5.75;;;4.00;;
13943;SDS011;7044;53.286;8.534;2023-04-24T05:08:47;14.57;;;4.18;;
13943;SDS011;7044;53.286;8.534;2023-04-24T05:11:14;6.05;;;4.50;;
13943;SDS011;7044;53.286;8.534;2023-04-24T05:13:41;5.13;;;3.60;;
13943;SDS011;7044;53.286;8.534;2023-04-24T05:16:08;4.20;;;3.80;;
13943;SDS011;7044;53.286;8.534;2023-04-24T05:18:35;4.95;;;4.07;;
13943;SDS011;7044;53.286;8.534;2023-04-24T05:21:01;6.10;;;4.53;;
13943;SDS011;7044;53.286;8.534;2023-04-24T05:23:30;4.70;;;3.88;;
13943;SDS011;7044;53.286;8.534;2023-04-24T05:25:56;5.65;;;4.15;;
13943;SDS011;7044;53.286;8.534;2023-04-24T05:28:23;3.97;;;3.58;;
13943;SDS011;7044;53.286;8.534;2023-04-24T05:30:53;5.65;;;4.00;;
13943;SDS011;7044;53.286;8.534;2023-04-24T05:33:20;5.05;;;4.55;;
13943;SDS011;7044;53.286;8.534;2023-04-24T05:35:47;5.25;;;3.70;;
13943;SDS011;7044;53.286;8.534;2023-04-24T05:38:14;4.35;;;3.95;;
13943;SDS011;7044;53.286;8.534;2023-04-24T05:40:44;5.45;;;4.03;;
13943;SDS011;7044;53.286;8.534;2023-04-24T05:43:11;5.80;;;4.32;;
13943;SDS011;7044;53.286;8.534;2023-04-24T05:45:37;4.72;;;4.15;;
13943;SDS011;7044;53.286;8.534;2023-04-24T05:48:04;4.90;;;4.35;;
13943;SDS011;7044;53.286;8.534;2023-04-24T05:50:31;7.93;;;4.47;;
13943;SDS011;7044;53.286;8.534;2023-04-24T05:52:58;6.60;;;4.25;;
13943;SDS011;7044;53.286;8.534;2023-04-24T05:55:27;5.10;;;3.95;;
13943;SDS011;7044;53.286;8.534;2023-04-24T05:57:55;4.18;;;3.78;;
13943;SDS011;7044;53.286;8.534;2023-04-24T06:00:22;5.32;;;3.92;;
13943;SDS011;7044;53.286;8.534;2023-04-24T06:02:49;5.32;;;4.20;;
13943;SDS011;7044;53.286;8.534;2023-04-24T06:05:16;5.72;;;4.28;;
13943;SDS011;7044;53.286;8.534;2023-04-24T06:07:43;5.82;;;3.97;;
13943;SDS011;7044;53.286;8.534;2023-04-24T06:10:10;5.30;;;4.15;;
13943;SDS011;7044;53.286;8.534;2023-04-24T06:12:37;7.57;;;4.32;;
13943;SDS011;7044;53.286;8.534;2023-04-24T06:15:06;5.07;;;4.15;;
13943;SDS011;7044;53.286;8.534;2023-04-24T06:17:34;6.00;;;4.10;;
13943;SDS011;7044;53.286;8.534;2023-04-24T06:20:00;8.20;;;4.30;;
13943;SDS011;7044;53.286;8.534;2023-04-24T06:22:29;6.05;;;4.82;;
13943;SDS011;7044;53.286;8.534;2023-04-24T06:24:56;6.80;;;4.53;;
13943;SDS011;7044;53.286;8.534;2023-04-24T06:27:23;8.27;;;5.13;;
13943;SDS011;7044;53.286;8.534;2023-04-24T06:29:50;4.40;;;4.00;;
13943;SDS011;7044;53.286;8.534;2023-04-24T06:32:20;6.50;;;4.78;;
13943;SDS011;7044;53.286;8.534;2023-04-24T06:34:48;7.65;;;4.60;;
13943;SDS011;7044;53.286;8.534;2023-04-24T06:37:15;11.10;;;4.20;;
13943;SDS011;7044;53.286;8.534;2023-04-24T06:39:42;5.45;;;3.92;;
13943;SDS011;7044;53.286;8.534;2023-04-24T06:42:08;7.10;;;4.80;;
13943;SDS011;7044;53.286;8.534;2023-04-24T06:44:35;6.88;;;4.25;;
13943;SDS011;7044;53.286;8.534;2023-04-24T06:47:05;4.28;;;3.85;;
13943;SDS011;7044;53.286;8.534;2023-04-24T06:49:34;5.20;;;4.53;;
13943;SDS011;7044;53.286;8.534;2023-04-24T06:52:01;7.65;;;4.97;;
13943;SDS011;7044;53.286;8.534;2023-04-24T06:54:28;5.00;;;4.43;;
13943;SDS011;7044;53.286;8.534;2023-04-24T06:56:55;5.93;;;4.35;;
13943;SDS011;7044;53.286;8.534;2023-04-24T06:59:22;5.45;;;4.90;;
13943;SDS011;7044;53.286;8.534;2023-04-24T07:01:49;4.57;;;4.13;;
13943;SDS011;7044;53.286;8.534;2023-04-24T07:04:16;4.85;;;4.20;;
13943;SDS011;7044;53.286;8.534;2023-04-24T07:06:44;7.07;;;4.38;;
13943;SDS011;7044;53.286;8.534;2023-04-24T07:09:11;4.72;;;4.20;;
13943;SDS011;7044;53.286;8.534;2023-04-24T07:11:41;5.05;;;4.20;;
13943;SDS011;7044;53.286;8.534;2023-04-24T07:14:07;6.25;;;4.97;;
13943;SDS011;7044;53.286;8.534;2023-04-24T07:16:35;5.68;;;4.53;;
13943;SDS011;7044;53.286;8.534;2023-04-24T07:19:02;6.85;;;4.85;;
13943;SDS011;7044;53.286;8.534;2023-04-24T07:21:29;7.63;;;4.97;;
13943;SDS011;7044;53.286;8.534;2023-04-24T07:23:58;5.63;;;4.68;;
13943;SDS011;7044;53.286;8.534;2023-04-24T07:26:25;5.78;;;4.60;;
13943;SDS011;7044;53.286;8.534;2023-04-24T07:28:51;5.10;;;4.50;;
13943;SDS011;7044;53.286;8.534;2023-04-24T07:31:18;9.10;;;5.38;;
13943;SDS011;7044;53.286;8.534;2023-04-24T07:33:46;8.15;;;5.43;;
13943;SDS011;7044;53.286;8.534;2023-04-24T07:36:12;5.40;;;4.68;;
13943;SDS011;7044;53.286;8.534;2023-04-24T07:38:43;5.78;;;4.90;;
13943;SDS011;7044;53.286;8.534;2023-04-24T07:41:12;6.55;;;5.00;;
13943;SDS011;7044;53.286;8.534;2023-04-24T07:43:39;6.80;;;5.45;;
13943;SDS011;7044;53.286;8.534;2023-04-24T07:46:05;6.55;;;5.38;;
13943;SDS011;7044;53.286;8.534;2023-04-24T07:48:33;6.78;;;5.30;;
13943;SDS011;7044;53.286;8.534;2023-04-24T07:51:00;8.88;;;5.57;;
13943;SDS011;7044;53.286;8.534;2023-04-24T07:53:26;7.00;;;5.80;;
13943;SDS011;7044;53.286;8.534;2023-04-24T07:55:53;9.25;;;5.22;;
13943;SDS011;7044;53.286;8.534;2023-04-24T07:58:22;7.07;;;5.20;;
13943;SDS011;7044;53.286;8.534;2023-04-24T08:00:49;6.22;;;5.20;;
13943;SDS011;7044;53.286;8.534;2023-04-24T08:03:16;7.70;;;5.47;;
13943;SDS011;7044;53.286;8.534;2023-04-24T08:05:44;8.77;;;5.53;;
13943;SDS011;7044;53.286;8.534;2023-04-24T08:08:11;8.10;;;6.32;;
13943;SDS011;7044;53.286;8.534;2023-04-24T08:10:39;9.52;;;6.55;;
13943;SDS011;7044;53.286;8.534;2023-04-24T08:13:05;7.65;;;6.03;;
13943;SDS011;7044;53.286;8.534;2023-04-24T08:15:33;7.50;;;6.10;;
13943;SDS011;7044;53.286;8.534;2023-04-24T08:18:00;5.75;;;5.00;;
13943;SDS011;7044;53.286;8.534;2023-04-24T08:20:27;6.32;;;4.95;;
13943;SDS011;7044;53.286;8.534;2023-04-24T08:22:54;9.98;;;5.93;;
13943;SDS011;7044;53.286;8.534;2023-04-24T08:25:21;8.15;;;5.35;;
13943;SDS011;7044;53.286;8.534;2023-04-24T08:27:49;5.80;;;4.93;;
13943;SDS011;7044;53.286;8.534;2023-04-24T08:30:16;6.90;;;5.20;;
13943;SDS011;7044;53.286;8.534;2023-04-24T08:32:45;7.95;;;4.95;;
13943;SDS011;7044;53.286;8.534;2023-04-24T08:35:12;5.57;;;4.63;;
13943;SDS011;7044;53.286;8.534;2023-04-24T08:37:38;5.22;;;4.60;;
13943;SDS011;7044;53.286;8.534;2023-04-24T08:40:06;6.10;;;4.60;;
13943;SDS011;7044;53.286;8.534;2023-04-24T08:42:37;5.30;;;4.60;;
13943;SDS011;7044;53.286;8.534;2023-04-24T08:45:05;5.97;;;4.80;;
13943;SDS011;7044;53.286;8.534;2023-04-24T08:47:33;7.07;;;4.22;;
13943;SDS011;7044;53.286;8.534;2023-04-24T08:50:03;4.93;;;4.28;;
13943;SDS011;7044;53.286;8.534;2023-04-24T08:52:32;4.85;;;4.35;;
13943;SDS011;7044;53.286;8.534;2023-04-24T08:54:59;6.82;;;4.53;;
13943;SDS011;7044;53.286;8.534;2023-04-24T08:57:27;4.90;;;4.20;;
13943;SDS011;7044;53.286;8.534;2023-04-24T08:59:54;5.50;;;4.40;;
13943;SDS011;7044;53.286;8.534;2023-04-24T09:02:22;5.03;;;4.10;;
13943;SDS011;7044;53.286;8.534;2023-04-24T09:04:49;8.65;;;4.20;;
13943;SDS011;7044;53.286;8.534;2023-04-24T09:07:18;6.88;;;4.25;;
13943;SDS011;7044;53.286;8.534;2023-04-24T09:09:47;6.13;;;4.60;;
13943;SDS011;7044;53.286;8.534;2023-04-24T09:12:16;7.53;;;4.97;;
13943;SDS011;7044;53.286;8.534;2023-04-24T09:14:44;10.23;;;4.68;;
13943;SDS011;7044;53.286;8.534;2023-04-24T09:17:11;7.00;;;5.43;;
13943;SDS011;7044;53.286;8.534;2023-04-24T09:19:37;7.00;;;5.45;;
13943;SDS011;7044;53.286;8.534;2023-04-24T09:22:04;8.52;;;4.78;;
13943;SDS011;7044;53.286;8.534;2023-04-24T09:24:33;7.85;;;4.95;;
13943;SDS011;7044;53.286;8.534;2023-04-24T09:27:00;5.72;;;4.53;;
13943;SDS011;7044;53.286;8.534;2023-04-24T09:29:27;6.60;;;5.07;;
13943;SDS011;7044;53.286;8.534;2023-04-24T09:31:54;5.05;;;4.55;;
13943;SDS011;7044;53.286;8.534;2023-04-24T09:34:22;4.93;;;4.15;;
13943;SDS011;7044;53.286;8.534;2023-04-24T09:36:50;4.63;;;4.15;;
13943;SDS011;7044;53.286;8.534;2023-04-24T09:39:17;5.75;;;4.53;;
13943;SDS011;7044;53.286;8.534;2023-04-24T09:41:47;6.90;;;5.05;;
13943;SDS011;7044;53.286;8.534;2023-04-24T09:44:16;4.60;;;3.72;;
13943;SDS011;7044;53.286;8.534;2023-04-24T09:46:48;3.50;;;3.20;;
13943;SDS011;7044;53.286;8.534;2023-04-24T09:49:20;3.85;;;3.30;;
13943;SDS011;7044;53.286;8.534;2023-04-24T09:51:48;5.43;;;3.75;;
13943;SDS011;7044;53.286;8.534;2023-04-24T09:54:15;6.90;;;4.28;;
13943;SDS011;7044;53.286;8.534;2023-04-24T09:56:45;5.80;;;4.80;;
13943;SDS011;7044;53.286;8.534;2023-04-24T09:59:15;6.90;;;5.18;;
13943;SDS011;7044;53.286;8.534;2023-04-24T10:01:43;7.30;;;5.07;;
13943;SDS011;7044;53.286;8.534;2023-04-24T10:04:17;6.07;;;4.57;;
13943;SDS011;7044;53.286;8.534;2023-04-24T10:06:45;6.43;;;4.07;;
13943;SDS011;7044;53.286;8.534;2023-04-24T10:09:13;5.07;;;4.20;;
13943;SDS011;7044;53.286;8.534;2023-04-24T10:11:41;4.82;;;3.70;;
13943;SDS011;7044;53.286;8.534;2023-04-24T10:14:12;5.05;;;4.30;;
13943;SDS011;7044;53.286;8.534;2023-04-24T10:16:40;3.78;;;3.20;;
13943;SDS011;7044;53.286;8.534;2023-04-24T10:19:11;4.22;;;3.50;;
13943;SDS011;7044;53.286;8.534;2023-04-24T10:21:40;4.72;;;3.63;;
13943;SDS011;7044;53.286;8.534;2023-04-24T10:24:11;4.15;;;3.75;;
13943;SDS011;7044;53.286;8.534;2023-04-24T10:26:38;4.65;;;4.25;;
13943;SDS011;7044;53.286;8.534;2023-04-24T10:29:06;6.47;;;4.40;;
13943;SDS011;7044;53.286;8.534;2023-04-24T10:31:38;4.68;;;4.28;;
13943;SDS011;7044;53.286;8.534;2023-04-24T10:34:06;4.88;;;4.22;;
13943;SDS011;7044;53.286;8.534;2023-04-24T10:36:34;6.43;;;4.63;;
13943;SDS011;7044;53.286;8.534;2023-04-24T10:39:03;6.13;;;4.38;;
13943;SDS011;7044;53.286;8.534;2023-04-24T10:41:36;5.53;;;4.53;;
13943;SDS011;7044;53.286;8.534;2023-04-24T10:44:04;7.25;;;5.20;;
13943;SDS011;7044;53.286;8.534;2023-04-24T10:46:31;7.63;;;5.25;;
13943;SDS011;7044;53.286;8.534;2023-04-24T10:48:59;6.00;;;5.20;;
13943;SDS011;7044;53.286;8.534;2023-04-24T10:51:44;9.48;;;5.57;;
13943;SDS011;7044;53.286;8.534;2023-04-24T10:54:22;7.47;;;6.00;;
13943;SDS011;7044;53.286;8.534;2023-04-24T10:56:50;10.10;;;5.70;;
13943;SDS011;7044;53.286;8.534;2023-04-24T10:59:23;6.88;;;5.65;;
13943;SDS011;7044;53.286;8.534;2023-04-24T11:01:52;6.95;;;5.55;;
13943;SDS011;7044;53.286;8.534;2023-04-24T11:04:30;6.50;;;5.78;;
13943;SDS011;7044;53.286;8.534;2023-04-24T11:06:57;8.65;;;5.80;;
13943;SDS011;7044;53.286;8.534;2023-04-24T11:09:26;8.38;;;6.05;;
13943;SDS011;7044;53.286;8.534;2023-04-24T11:12:02;7.32;;;5.70;;
13943;SDS011;7044;53.286;8.534;2023-04-24T11:14:31;8.43;;;5.63;;
13943;SDS011;7044;53.286;8.534;2023-04-24T11:17:29;8.68;;;6.50;;
13943;SDS011;7044;53.286;8.534;2023-04-24T11:20:01;6.40;;;5.72;;
13943;SDS011;7044;53.286;8.534;2023-04-24T11:22:30;10.10;;;6.57;;
13943;SDS011;7044;53.286;8.534;2023-04-24T11:25:00;8.05;;;6.65;;
13943;SDS011;7044;53.286;8.534;2023-04-24T11:27:29;9.23;;;6.82;;
13943;SDS011;7044;53.286;8.534;2023-04-24T11:30:00;7.10;;;5.47;;
13943;SDS011;7044;53.286;8.534;2023-04-24T11:32:29;5.63;;;5.07;;
13943;SDS011;7044;53.286;8.534;2023-04-24T11:35:04;6.65;;;5.10;;
13943;SDS011;7044;53.286;8.534;2023-04-24T11:37:33;5.55;;;4.97;;
13943;SDS011;7044;53.286;8.534;2023-04-24T11:40:02;6.32;;;5.20;;
13943;SDS011;7044;53.286;8.534;2023-04-24T11:42:33;5.45;;;4.78;;
13943;SDS011;7044;53.286;8.534;2023-04-24T11:45:00;7.82;;;5.18;;
13943;SDS011;7044;53.286;8.534;2023-04-24T11:47:29;7.50;;;4.60;;
13943;SDS011;7044;53.286;8.534;2023-04-24T11:49:58;5.05;;;4.32;;
13943;SDS011;7044;53.286;8.534;2023-04-24T11:52:27;5.30;;;4.43;;
13943;SDS011;7044;53.286;8.534;2023-04-24T11:54:54;5.95;;;4.88;;
13943;SDS011;7044;53.286;8.534;2023-04-24T11:57:21;6.57;;;5.03;;
13943;SDS011;7044;53.286;8.534;2023-04-24T11:59:49;5.32;;;4.55;;
13943;SDS011;7044;53.286;8.534;2023-04-24T12:02:22;4.57;;;4.18;;
13943;SDS011;7044;53.286;8.534;2023-04-24T12:04:49;4.50;;;3.80;;
13943;SDS011;7044;53.286;8.534;2023-04-24T12:07:16;3.45;;;3.15;;
13943;SDS011;7044;53.286;8.534;2023-04-24T12:09:45;6.25;;;3.65;;
13943;SDS011;7044;53.286;8.534;2023-04-24T12:12:13;3.90;;;3.45;;
13943;SDS011;7044;53.286;8.534;2023-04-24T12:14:44;4.28;;;3.60;;
13943;SDS011;7044;53.286;8.534;2023-04-24T12:17:14;4.18;;;3.78;;
13943;SDS011;7044;53.286;8.534;2023-04-24T12:19:44;7.18;;;3.90;;
13943;SDS011;7044;53.286;8.534;2023-04-24T12:22:12;4.72;;;3.67;;
13943;SDS011;7044;53.286;8.534;2023-04-24T12:27:23;3.33;;;3.03;;
13943;SDS011;7044;53.286;8.534;2023-04-24T12:29:53;2.97;;;2.65;;
13943;SDS011;7044;53.286;8.534;2023-04-24T12:32:21;3.10;;;2.42;;
13943;SDS011;7044;53.286;8.534;2023-04-24T12:34:49;4.05;;;2.45;;
13943;SDS011;7044;53.286;8.534;2023-04-24T12:37:16;2.55;;;2.35;;
13943;SDS011;7044;53.286;8.534;2023-04-24T12:39:44;3.35;;;2.88;;
13943;SDS011;7044;53.286;8.534;2023-04-24T12:42:26;4.00;;;3.13;;
13943;SDS011;7044;53.286;8.534;2023-04-24T12:44:55;5.10;;;3.17;;
13943;SDS011;7044;53.286;8.534;2023-04-24T12:47:23;6.40;;;4.28;;
13943;SDS011;7044;53.286;8.534;2023-04-24T12:49:50;5.63;;;4.22;;
13943;SDS011;7044;53.286;8.534;2023-04-24T12:52:17;6.70;;;4.30;;
13943;SDS011;7044;53.286;8.534;2023-04-24T12:54:44;4.25;;;3.72;;
13943;SDS011;7044;53.286;8.534;2023-04-24T12:57:13;5.77;;;4.50;;
13943;SDS011;7044;53.286;8.534;2023-04-24T12:59:39;7.10;;;4.30;;
13943;SDS011;7044;53.286;8.534;2023-04-24T13:02:06;7.80;;;5.30;;
13943;SDS011;7044;53.286;8.534;2023-04-24T13:04:34;7.40;;;5.00;;
13943;SDS011;7044;53.286;8.534;2023-04-24T13:07:01;7.17;;;5.27;;
13943;SDS011;7044;53.286;8.534;2023-04-24T13:09:28;10.23;;;6.20;;
13943;SDS011;7044;53.286;8.534;2023-04-24T13:11:55;9.27;;;6.03;;
13943;SDS011;7044;53.286;8.534;2023-04-24T13:14:23;11.10;;;6.67;;
13943;SDS011;7044;53.286;8.534;2023-04-24T13:16:49;9.37;;;6.97;;
13943;SDS011;7044;53.286;8.534;2023-04-24T13:19:16;9.73;;;7.60;;
13943;SDS011;7044;53.286;8.534;2023-04-24T13:21:44;11.83;;;8.03;;
13943;SDS011;7044;53.286;8.534;2023-04-24T13:24:10;11.17;;;7.67;;
13943;SDS011;7044;53.286;8.534;2023-04-24T13:26:38;11.43;;;7.33;;
13943;SDS011;7044;53.286;8.534;2023-04-24T13:29:04;12.10;;;7.13;;
13943;SDS011;7044;53.286;8.534;2023-04-24T13:31:32;15.43;;;7.37;;
13943;SDS011;7044;53.286;8.534;2023-04-24T13:33:59;10.70;;;7.10;;
13943;SDS011;7044;53.286;8.534;2023-04-24T13:36:26;10.47;;;6.83;;
13943;SDS011;7044;53.286;8.534;2023-04-24T13:38:53;11.57;;;7.00;;
13943;SDS011;7044;53.286;8.534;2023-04-24T13:41:20;11.73;;;7.07;;
13943;SDS011;7044;53.286;8.534;2023-04-24T13:43:46;12.33;;;7.17;;
13943;SDS011;7044;53.286;8.534;2023-04-24T13:46:13;13.90;;;6.83;;
13943;SDS011;7044;53.286;8.534;2023-04-24T13:48:41;9.77;;;6.77;;
13943;SDS011;7044;53.286;8.534;2023-04-24T13:51:08;9.80;;;6.43;;
13943;SDS011;7044;53.286;8.534;2023-04-24T13:53:35;10.70;;;6.80;;
13943;SDS011;7044;53.286;8.534;2023-04-24T13:56:03;8.60;;;6.13;;
13943;SDS011;7044;53.286;8.534;2023-04-24T13:58:30;8.30;;;5.73;;
13943;SDS011;7044;53.286;8.534;2023-04-24T14:00:57;14.57;;;5.87;;
13943;SDS011;7044;53.286;8.534;2023-04-24T14:03:24;11.90;;;6.30;;
13943;SDS011;7044;53.286;8.534;2023-04-24T14:05:52;9.55;;;5.32;;
13943;SDS011;7044;53.286;8.534;2023-04-24T14:08:19;10.23;;;5.30;;
13943;SDS011;7044;53.286;8.534;2023-04-24T14:10:46;8.40;;;5.10;;
13943;SDS011;7044;53.286;8.534;2023-04-24T14:13:12;8.23;;;3.85;;
13943;SDS011;7044;53.286;8.534;2023-04-24T14:15:40;9.27;;;4.20;;
13943;SDS011;7044;53.286;8.534;2023-04-24T14:18:07;8.53;;;4.83;;
13943;SDS011;7044;53.286;8.534;2023-04-24T14:20:33;5.70;;;3.80;;
13943;SDS011;7044;53.286;8.534;2023-04-24T14:23:02;6.18;;;4.10;;
13943;SDS011;7044;53.286;8.534;2023-04-24T14:25:29;8.20;;;4.07;;
13943;SDS011;7044;53.286;8.534;2023-04-24T14:27:56;8.00;;;3.80;;
13943;SDS011;7044;53.286;8.534;2023-04-24T14:30:23;11.63;;;4.00;;
13943;SDS011;7044;53.286;8.534;2023-04-24T14:32:50;6.60;;;3.57;;
13943;SDS011;7044;53.286;8.534;2023-04-24T14:35:17;5.63;;;3.67;;
13943;SDS011;7044;53.286;8.534;2023-04-24T14:37:43;8.07;;;3.50;;
13943;SDS011;7044;53.286;8.534;2023-04-24T14:40:12;7.43;;;3.85;;
13943;SDS011;7044;53.286;8.534;2023-04-24T14:42:38;8.53;;;3.60;;
13943;SDS011;7044;53.286;8.534;2023-04-24T14:45:06;7.37;;;3.20;;
13943;SDS011;7044;53.286;8.534;2023-04-24T14:47:33;9.07;;;3.60;;
13943;SDS011;7044;53.286;8.534;2023-04-24T14:50:00;10.20;;;4.10;;
13943;SDS011;7044;53.286;8.534;2023-04-24T14:52:27;12.68;;;3.55;;
13943;SDS011;7044;53.286;8.534;2023-04-24T14:54:54;10.48;;;3.60;;
13943;SDS011;7044;53.286;8.534;2023-04-24T14:57:22;9.10;;;3.58;;
13943;SDS011;7044;53.286;8.534;2023-04-24T14:59:49;7.63;;;3.70;;
13943;SDS011;7044;53.286;8.534;2023-04-24T15:02:16;10.98;;;3.45;;
13943;SDS011;7044;53.286;8.534;2023-04-24T15:04:43;7.05;;;3.33;;
13943;SDS011;7044;53.286;8.534;2023-04-24T15:07:09;8.50;;;3.28;;